Terminal Aerodrome Forecast
Issued by NWS Shreveport, LA

Home | Current Version | Previous Version | Text Only | Print | Product List | Glossary On
Versions: 1 2 3 4 5 6 7 8 9 10 11 12 13 14 15 16 17 18 19 20 21 22 23
154
FTUS44 KSHV 291723
TAFLFK
TAF
KLFK 291723Z 2918/3018 VRB04KT P6SM SCT040 BKN150 BKN250
     FM300000 00000KT P6SM SCT150 SCT250
      TEMPO 3009/3013 3SM BR
     FM301400 13004KT P6SM SCT025 BKN250
     FM301600 15006KT P6SM SCT035 BKN250=

USA.gov is the U.S. government's official web portal to all federal, state and local government web resources and services.